sensor_id;sensor_type;location;lat;lon;timestamp;pressure;altitude;pressure_sealevel;temperature;humidity
75996;BME280;64681;49.738;9.004;2023-02-23T00:01:51;99129.69;;;9.31;72.48
75996;BME280;64681;49.738;9.004;2023-02-23T00:04:17;99132.84;;;9.46;72.19
75996;BME280;64681;49.738;9.004;2023-02-23T00:06:43;99124.94;;;9.37;72.47
75996;BME280;64681;49.738;9.004;2023-02-23T00:09:09;99123.63;;;9.43;72.04
75996;BME280;64681;49.738;9.004;2023-02-23T00:11:55;99132.53;;;9.47;71.50
75996;BME280;64681;49.738;9.004;2023-02-23T00:14:26;99129.06;;;9.34;72.31
75996;BME280;64681;49.738;9.004;2023-02-23T00:16:53;99121.69;;;9.31;72.21
75996;BME280;64681;49.738;9.004;2023-02-23T00:19:19;99126.06;;;9.36;72.33
75996;BME280;64681;49.738;9.004;2023-02-23T00:21:45;99117.94;;;9.11;72.91
75996;BME280;64681;49.738;9.004;2023-02-23T00:24:13;99112.66;;;9.24;72.59
75996;BME280;64681;49.738;9.004;2023-02-23T00:26:44;99121.78;;;9.23;73.01
75996;BME280;64681;49.738;9.004;2023-02-23T00:29:17;99123.25;;;9.32;72.47
75996;BME280;64681;49.738;9.004;2023-02-23T00:31:44;99116.75;;;9.21;72.47
75996;BME280;64681;49.738;9.004;2023-02-23T00:34:12;99119.56;;;9.25;72.68
75996;BME280;64681;49.738;9.004;2023-02-23T00:36:38;99112.56;;;8.99;72.90
75996;BME280;64681;49.738;9.004;2023-02-23T00:39:09;99112.69;;;9.02;73.66
75996;BME280;64681;49.738;9.004;2023-02-23T00:41:46;99118.56;;;9.29;72.95
75996;BME280;64681;49.738;9.004;2023-02-23T00:44:13;99120.66;;;9.24;72.84
75996;BME280;64681;49.738;9.004;2023-02-23T00:46:42;99124.50;;;9.35;72.46
75996;BME280;64681;49.738;9.004;2023-02-23T00:49:12;99121.44;;;9.24;72.82
75996;BME280;64681;49.738;9.004;2023-02-23T00:51:38;99120.00;;;9.27;73.21
75996;BME280;64681;49.738;9.004;2023-02-23T00:54:05;99121.84;;;9.14;73.85
75996;BME280;64681;49.738;9.004;2023-02-23T00:56:31;99113.69;;;9.31;73.42
75996;BME280;64681;49.738;9.004;2023-02-23T00:58:57;99113.44;;;9.45;72.39
75996;BME280;64681;49.738;9.004;2023-02-23T01:01:23;99122.84;;;9.43;72.82
75996;BME280;64681;49.738;9.004;2023-02-23T01:03:49;99118.50;;;9.38;72.98
75996;BME280;64681;49.738;9.004;2023-02-23T01:06:16;99114.66;;;9.48;73.19
75996;BME280;64681;49.738;9.004;2023-02-23T01:08:44;99124.00;;;9.54;72.95
75996;BME280;64681;49.738;9.004;2023-02-23T01:11:18;99115.91;;;9.63;72.40
75996;BME280;64681;49.738;9.004;2023-02-23T01:13:51;99109.31;;;9.48;73.18
75996;BME280;64681;49.738;9.004;2023-02-23T01:16:19;99116.63;;;9.39;73.85
75996;BME280;64681;49.738;9.004;2023-02-23T01:18:45;99119.75;;;9.41;73.70
75996;BME280;64681;49.738;9.004;2023-02-23T01:21:21;99115.53;;;9.52;72.97
75996;BME280;64681;49.738;9.004;2023-02-23T01:23:49;99119.91;;;9.57;73.32
75996;BME280;64681;49.738;9.004;2023-02-23T01:26:21;99124.56;;;9.26;75.10
75996;BME280;64681;49.738;9.004;2023-02-23T01:28:52;99127.31;;;9.51;73.68
75996;BME280;64681;49.738;9.004;2023-02-23T01:31:20;99115.34;;;9.57;74.20
75996;BME280;64681;49.738;9.004;2023-02-23T01:33:47;99122.91;;;9.55;74.37
75996;BME280;64681;49.738;9.004;2023-02-23T01:36:12;99123.72;;;9.34;75.27
75996;BME280;64681;49.738;9.004;2023-02-23T01:38:39;99119.13;;;9.23;76.30
75996;BME280;64681;49.738;9.004;2023-02-23T01:41:04;99116.50;;;9.35;75.48
75996;BME280;64681;49.738;9.004;2023-02-23T01:43:31;99114.53;;;9.44;75.37
75996;BME280;64681;49.738;9.004;2023-02-23T01:45:58;99107.56;;;9.52;74.99
75996;BME280;64681;49.738;9.004;2023-02-23T01:48:35;99092.78;;;9.55;74.29
75996;BME280;64681;49.738;9.004;2023-02-23T01:51:18;99113.81;;;9.35;76.07
75996;BME280;64681;49.738;9.004;2023-02-23T01:53:54;99112.13;;;9.52;75.05
75996;BME280;64681;49.738;9.004;2023-02-23T01:56:27;99113.88;;;9.47;76.08
75996;BME280;64681;49.738;9.004;2023-02-23T01:58:56;99107.44;;;9.48;75.38
75996;BME280;64681;49.738;9.004;2023-02-23T02:01:24;99111.06;;;9.44;75.99
75996;BME280;64681;49.738;9.004;2023-02-23T02:03:57;99115.72;;;9.34;76.46
75996;BME280;64681;49.738;9.004;2023-02-23T02:06:24;99118.63;;;9.42;76.40
75996;BME280;64681;49.738;9.004;2023-02-23T02:08:57;99102.59;;;9.29;76.57
75996;BME280;64681;49.738;9.004;2023-02-23T02:11:25;99103.03;;;9.31;76.66
75996;BME280;64681;49.738;9.004;2023-02-23T02:14:03;99109.69;;;9.25;77.62
75996;BME280;64681;49.738;9.004;2023-02-23T02:16:57;99117.47;;;9.09;79.00
75996;BME280;64681;49.738;9.004;2023-02-23T02:30:31;99097.63;;;9.40;77.12
75996;BME280;64681;49.738;9.004;2023-02-23T02:38:55;99104.16;;;9.30;78.93
75996;BME280;64681;49.738;9.004;2023-02-23T02:44:14;99095.53;;;9.46;77.83
75996;BME280;64681;49.738;9.004;2023-02-23T02:46:48;99090.31;;;9.37;78.36
75996;BME280;64681;49.738;9.004;2023-02-23T02:49:33;99087.06;;;9.31;78.77
75996;BME280;64681;49.738;9.004;2023-02-23T02:52:13;99092.22;;;9.49;78.45
75996;BME280;64681;49.738;9.004;2023-02-23T02:54:51;99094.88;;;9.82;77.27
75996;BME280;64681;49.738;9.004;2023-02-23T02:57:22;99081.19;;;9.72;77.69
75996;BME280;64681;49.738;9.004;2023-02-23T02:59:49;99081.84;;;9.69;77.07
75996;BME280;64681;49.738;9.004;2023-02-23T03:02:37;99090.47;;;9.53;77.80
75996;BME280;64681;49.738;9.004;2023-02-23T03:05:26;99073.09;;;9.34;78.77
75996;BME280;64681;49.738;9.004;2023-02-23T03:11:17;99087.91;;;9.57;78.59
75996;BME280;64681;49.738;9.004;2023-02-23T03:17:32;99078.16;;;9.61;77.88
75996;BME280;64681;49.738;9.004;2023-02-23T03:20:27;99089.34;;;9.54;78.39
75996;BME280;64681;49.738;9.004;2023-02-23T03:26:38;99082.34;;;9.49;78.98
75996;BME280;64681;49.738;9.004;2023-02-23T03:30:23;99086.34;;;9.56;78.42
75996;BME280;64681;49.738;9.004;2023-02-23T03:35:48;99084.03;;;9.66;78.03
75996;BME280;64681;49.738;9.004;2023-02-23T03:38:57;99090.25;;;9.58;79.13
75996;BME280;64681;49.738;9.004;2023-02-23T03:41:42;99087.25;;;9.60;78.65
75996;BME280;64681;49.738;9.004;2023-02-23T03:44:36;99083.16;;;9.62;78.44
75996;BME280;64681;49.738;9.004;2023-02-23T03:47:26;99082.47;;;9.65;78.68
75996;BME280;64681;49.738;9.004;2023-02-23T03:50:28;99088.03;;;9.60;78.77
75996;BME280;64681;49.738;9.004;2023-02-23T03:53:18;99095.03;;;9.65;79.24
75996;BME280;64681;49.738;9.004;2023-02-23T03:56:08;99090.94;;;9.68;78.20
75996;BME280;64681;49.738;9.004;2023-02-23T03:58:58;99089.47;;;9.58;78.66
75996;BME280;64681;49.738;9.004;2023-02-23T04:01:45;99093.81;;;9.62;78.82
75996;BME280;64681;49.738;9.004;2023-02-23T04:04:32;99095.16;;;9.69;78.89
75996;BME280;64681;49.738;9.004;2023-02-23T04:07:19;99099.06;;;9.71;79.05
75996;BME280;64681;49.738;9.004;2023-02-23T04:10:04;99090.94;;;9.68;79.34
75996;BME280;64681;49.738;9.004;2023-02-23T04:15:53;99090.50;;;9.32;80.71
75996;BME280;64681;49.738;9.004;2023-02-23T04:18:29;99093.09;;;9.41;80.08
75996;BME280;64681;49.738;9.004;2023-02-23T04:20:57;99079.78;;;9.19;81.29
75996;BME280;64681;49.738;9.004;2023-02-23T04:23:26;99089.13;;;9.26;81.63
75996;BME280;64681;49.738;9.004;2023-02-23T04:25:53;99079.78;;;9.19;81.55
75996;BME280;64681;49.738;9.004;2023-02-23T04:28:24;99089.50;;;9.37;81.25
75996;BME280;64681;49.738;9.004;2023-02-23T04:30:51;99089.09;;;9.47;80.60
75996;BME280;64681;49.738;9.004;2023-02-23T04:33:18;99089.81;;;9.56;80.53
75996;BME280;64681;49.738;9.004;2023-02-23T04:35:43;99093.78;;;9.50;79.98
75996;BME280;64681;49.738;9.004;2023-02-23T04:38:09;99091.41;;;9.36;80.60
75996;BME280;64681;49.738;9.004;2023-02-23T04:40:35;99088.44;;;9.16;81.80
75996;BME280;64681;49.738;9.004;2023-02-23T04:43:01;99091.31;;;9.45;80.66
75996;BME280;64681;49.738;9.004;2023-02-23T04:45:27;99095.78;;;9.53;80.20
75996;BME280;64681;49.738;9.004;2023-02-23T04:47:53;99090.25;;;9.58;79.92
75996;BME280;64681;49.738;9.004;2023-02-23T04:50:19;99099.97;;;9.75;79.85
75996;BME280;64681;49.738;9.004;2023-02-23T04:52:46;99095.28;;;9.72;79.79
75996;BME280;64681;49.738;9.004;2023-02-23T04:55:17;99100.38;;;9.65;80.13
75996;BME280;64681;49.738;9.004;2023-02-23T04:57:43;99099.38;;;9.70;79.49
75996;BME280;64681;49.738;9.004;2023-02-23T05:00:09;99093.56;;;9.55;80.12
75996;BME280;64681;49.738;9.004;2023-02-23T05:02:35;99092.47;;;9.56;80.06
75996;BME280;64681;49.738;9.004;2023-02-23T05:05:00;99095.50;;;9.67;80.11
75996;BME280;64681;49.738;9.004;2023-02-23T05:07:26;99096.72;;;9.70;79.03
75996;BME280;64681;49.738;9.004;2023-02-23T05:09:51;99103.41;;;9.76;79.36
75996;BME280;64681;49.738;9.004;2023-02-23T05:12:17;99096.25;;;9.68;79.08
75996;BME280;64681;49.738;9.004;2023-02-23T05:14:42;99098.28;;;9.71;79.08
75996;BME280;64681;49.738;9.004;2023-02-23T05:17:08;99093.41;;;9.73;78.99
75996;BME280;64681;49.738;9.004;2023-02-23T05:19:34;99104.50;;;9.75;79.05
75996;BME280;64681;49.738;9.004;2023-02-23T05:22:00;99099.28;;;9.78;79.19
75996;BME280;64681;49.738;9.004;2023-02-23T05:24:25;99094.06;;;9.70;79.48
75996;BME280;64681;49.738;9.004;2023-02-23T05:26:54;99091.06;;;9.71;79.46
75996;BME280;64681;49.738;9.004;2023-02-23T05:29:19;99094.81;;;9.70;79.36
75996;BME280;64681;49.738;9.004;2023-02-23T05:31:45;99100.50;;;9.81;79.66
75996;BME280;64681;49.738;9.004;2023-02-23T05:34:13;99103.19;;;9.81;79.61
75996;BME280;64681;49.738;9.004;2023-02-23T05:36:39;99086.81;;;9.70;79.52
75996;BME280;64681;49.738;9.004;2023-02-23T05:39:04;99094.94;;;9.74;79.30
75996;BME280;64681;49.738;9.004;2023-02-23T05:41:30;99108.19;;;9.82;79.77
75996;BME280;64681;49.738;9.004;2023-02-23T05:43:56;99104.31;;;9.92;78.81
75996;BME280;64681;49.738;9.004;2023-02-23T05:46:23;99110.13;;;10.07;79.00
75996;BME280;64681;49.738;9.004;2023-02-23T05:48:50;99107.09;;;9.96;79.12
75996;BME280;64681;49.738;9.004;2023-02-23T05:51:19;99098.75;;;9.97;78.60
75996;BME280;64681;49.738;9.004;2023-02-23T05:53:45;99104.44;;;10.08;79.05
75996;BME280;64681;49.738;9.004;2023-02-23T05:56:14;99108.66;;;9.97;79.51
75996;BME280;64681;49.738;9.004;2023-02-23T05:58:53;99105.13;;;10.05;79.12
75996;BME280;64681;49.738;9.004;2023-02-23T06:01:21;99103.25;;;10.18;78.13
75996;BME280;64681;49.738;9.004;2023-02-23T06:03:47;99098.22;;;9.92;78.99
75996;BME280;64681;49.738;9.004;2023-02-23T06:06:13;99110.78;;;10.04;78.49
75996;BME280;64681;49.738;9.004;2023-02-23T06:08:40;99105.22;;;10.09;78.06
75996;BME280;64681;49.738;9.004;2023-02-23T06:11:06;99117.66;;;10.05;78.75
75996;BME280;64681;49.738;9.004;2023-02-23T06:13:32;99115.56;;;10.10;78.56
75996;BME280;64681;49.738;9.004;2023-02-23T06:15:58;99114.78;;;10.10;78.38
75996;BME280;64681;49.738;9.004;2023-02-23T06:18:25;99107.56;;;10.10;78.80
75996;BME280;64681;49.738;9.004;2023-02-23T06:20:51;99108.53;;;9.93;79.23
75996;BME280;64681;49.738;9.004;2023-02-23T06:23:17;99106.94;;;9.68;80.52
75996;BME280;64681;49.738;9.004;2023-02-23T06:25:44;99111.97;;;9.94;79.86
75996;BME280;64681;49.738;9.004;2023-02-23T06:28:10;99122.00;;;10.09;78.60
75996;BME280;64681;49.738;9.004;2023-02-23T06:30:37;99121.59;;;10.20;78.46
75996;BME280;64681;49.738;9.004;2023-02-23T06:33:04;99110.91;;;10.20;78.18
75996;BME280;64681;49.738;9.004;2023-02-23T06:35:30;99122.69;;;10.19;78.27
75996;BME280;64681;49.738;9.004;2023-02-23T06:37:58;99126.91;;;10.20;77.63
75996;BME280;64681;49.738;9.004;2023-02-23T06:40:23;99125.25;;;10.15;77.65
75996;BME280;64681;49.738;9.004;2023-02-23T06:42:49;99131.63;;;9.89;79.16
75996;BME280;64681;49.738;9.004;2023-02-23T06:45:15;99129.34;;;10.12;78.57
75996;BME280;64681;49.738;9.004;2023-02-23T06:47:41;99129.94;;;10.43;77.79
75996;BME280;64681;49.738;9.004;2023-02-23T06:50:08;99118.16;;;10.44;76.42
75996;BME280;64681;49.738;9.004;2023-02-23T06:52:34;99130.16;;;10.38;77.28
75996;BME280;64681;49.738;9.004;2023-02-23T06:55:02;99133.69;;;10.29;77.63
75996;BME280;64681;49.738;9.004;2023-02-23T06:57:27;99143.19;;;10.39;77.15
75996;BME280;64681;49.738;9.004;2023-02-23T06:59:53;99143.28;;;10.43;77.60
75996;BME280;64681;49.738;9.004;2023-02-23T07:02:19;99137.75;;;10.48;78.08
75996;BME280;64681;49.738;9.004;2023-02-23T07:04:44;99150.09;;;10.53;77.68
75996;BME280;64681;49.738;9.004;2023-02-23T07:07:10;99140.94;;;10.54;77.26
75996;BME280;64681;49.738;9.004;2023-02-23T07:09:39;99148.63;;;10.68;77.13
75996;BME280;64681;49.738;9.004;2023-02-23T07:12:05;99152.97;;;10.72;76.50
75996;BME280;64681;49.738;9.004;2023-02-23T07:14:31;99149.94;;;10.74;77.40
75996;BME280;64681;49.738;9.004;2023-02-23T07:16:57;99159.19;;;10.64;77.39
75996;BME280;64681;49.738;9.004;2023-02-23T07:19:23;99151.84;;;10.73;77.11
75996;BME280;64681;49.738;9.004;2023-02-23T07:21:49;99153.38;;;10.87;76.78
75996;BME280;64681;49.738;9.004;2023-02-23T07:24:14;99155.38;;;11.02;76.17
75996;BME280;64681;49.738;9.004;2023-02-23T07:26:40;99157.59;;;11.00;75.55
75996;BME280;64681;49.738;9.004;2023-02-23T07:29:10;99168.91;;;11.22;75.05
75996;BME280;64681;49.738;9.004;2023-02-23T07:31:36;99165.78;;;11.20;75.49
75996;BME280;64681;49.738;9.004;2023-02-23T07:34:02;99160.25;;;11.13;75.57
75996;BME280;64681;49.738;9.004;2023-02-23T07:36:28;99158.88;;;11.19;74.52
75996;BME280;64681;49.738;9.004;2023-02-23T07:38:53;99165.09;;;11.35;74.20
75996;BME280;64681;49.738;9.004;2023-02-23T07:41:19;99160.28;;;11.41;73.83
75996;BME280;64681;49.738;9.004;2023-02-23T07:43:44;99165.19;;;11.39;73.85
75996;BME280;64681;49.738;9.004;2023-02-23T07:46:10;99166.25;;;11.22;74.81
75996;BME280;64681;49.738;9.004;2023-02-23T07:48:36;99166.00;;;11.27;75.14
75996;BME280;64681;49.738;9.004;2023-02-23T07:51:08;99171.78;;;11.29;74.88
75996;BME280;64681;49.738;9.004;2023-02-23T07:53:34;99170.72;;;11.46;75.29
75996;BME280;64681;49.738;9.004;2023-02-23T07:56:00;99167.50;;;11.69;73.57
75996;BME280;64681;49.738;9.004;2023-02-23T07:58:27;99167.41;;;11.65;74.46
75996;BME280;64681;49.738;9.004;2023-02-23T08:00:55;99166.84;;;11.72;74.19
75996;BME280;64681;49.738;9.004;2023-02-23T08:03:21;99180.25;;;11.88;74.38
75996;BME280;64681;49.738;9.004;2023-02-23T08:05:47;99175.00;;;12.08;72.93
75996;BME280;64681;49.738;9.004;2023-02-23T08:08:13;99171.56;;;12.07;72.35
75996;BME280;64681;49.738;9.004;2023-02-23T08:10:39;99179.97;;;11.93;73.24
75996;BME280;64681;49.738;9.004;2023-02-23T08:13:05;99176.63;;;11.96;72.33
75996;BME280;64681;49.738;9.004;2023-02-23T08:15:31;99175.66;;;11.88;72.89
75996;BME280;64681;49.738;9.004;2023-02-23T08:17:57;99168.47;;;11.77;73.99
75996;BME280;64681;49.738;9.004;2023-02-23T08:20:23;99177.56;;;11.88;74.12
75996;BME280;64681;49.738;9.004;2023-02-23T08:22:53;99183.13;;;12.11;73.84
75996;BME280;64681;49.738;9.004;2023-02-23T08:25:21;99178.66;;;12.31;73.42
75996;BME280;64681;49.738;9.004;2023-02-23T08:27:48;99176.16;;;12.39;73.08
75996;BME280;64681;49.738;9.004;2023-02-23T08:30:17;99190.50;;;12.46;72.82
75996;BME280;64681;49.738;9.004;2023-02-23T08:32:44;99182.91;;;12.48;72.33
75996;BME280;64681;49.738;9.004;2023-02-23T08:35:10;99180.56;;;12.31;73.08
75996;BME280;64681;49.738;9.004;2023-02-23T08:37:36;99192.03;;;12.31;73.30
75996;BME280;64681;49.738;9.004;2023-02-23T08:40:03;99201.97;;;12.47;72.74
75996;BME280;64681;49.738;9.004;2023-02-23T08:42:29;99190.56;;;12.34;73.12
75996;BME280;64681;49.738;9.004;2023-02-23T08:44:55;99198.44;;;12.43;72.94
75996;BME280;64681;49.738;9.004;2023-02-23T08:47:20;99191.63;;;12.45;72.79
75996;BME280;64681;49.738;9.004;2023-02-23T08:49:51;99194.56;;;12.40;72.90
75996;BME280;64681;49.738;9.004;2023-02-23T08:52:19;99201.66;;;12.48;72.50
75996;BME280;64681;49.738;9.004;2023-02-23T08:54:45;99195.59;;;12.51;72.52
75996;BME280;64681;49.738;9.004;2023-02-23T08:57:11;99182.75;;;12.41;72.97
75996;BME280;64681;49.738;9.004;2023-02-23T08:59:37;99188.69;;;12.66;72.55
75996;BME280;64681;49.738;9.004;2023-02-23T09:02:06;99198.22;;;12.83;72.46
75996;BME280;64681;49.738;9.004;2023-02-23T09:04:34;99198.47;;;12.94;71.95
75996;BME280;64681;49.738;9.004;2023-02-23T09:07:01;99196.22;;;12.96;71.09
75996;BME280;64681;49.738;9.004;2023-02-23T09:09:27;99203.00;;;12.90;71.63
75996;BME280;64681;49.738;9.004;2023-02-23T09:11:52;99193.50;;;13.12;71.42
75996;BME280;64681;49.738;9.004;2023-02-23T09:14:18;99189.34;;;13.35;70.55
75996;BME280;64681;49.738;9.004;2023-02-23T09:16:44;99190.25;;;13.58;70.16
75996;BME280;64681;49.738;9.004;2023-02-23T09:19:12;99185.78;;;13.66;69.88
75996;BME280;64681;49.738;9.004;2023-02-23T09:21:38;99197.13;;;13.79;68.78
75996;BME280;64681;49.738;9.004;2023-02-23T09:24:04;99192.22;;;14.04;69.13
75996;BME280;64681;49.738;9.004;2023-02-23T09:26:30;99183.44;;;14.31;68.04
75996;BME280;64681;49.738;9.004;2023-02-23T09:28:59;99195.25;;;14.72;67.52
75996;BME280;64681;49.738;9.004;2023-02-23T09:31:26;99195.72;;;15.05;65.73
75996;BME280;64681;49.738;9.004;2023-02-23T09:33:52;99202.97;;;15.31;64.97
75996;BME280;64681;49.738;9.004;2023-02-23T09:36:22;99200.19;;;15.24;64.37
75996;BME280;64681;49.738;9.004;2023-02-23T09:38:50;99200.78;;;14.83;65.09
75996;BME280;64681;49.738;9.004;2023-02-23T09:43:55;99208.88;;;15.14;64.99
75996;BME280;64681;49.738;9.004;2023-02-23T09:46:34;99218.22;;;15.24;64.79
75996;BME280;64681;49.738;9.004;2023-02-23T09:49:07;99212.34;;;15.14;64.66
75996;BME280;64681;49.738;9.004;2023-02-23T09:51:40;99205.34;;;15.10;63.94
75996;BME280;64681;49.738;9.004;2023-02-23T09:54:12;99204.03;;;14.96;64.54
75996;BME280;64681;49.738;9.004;2023-02-23T09:56:43;99208.38;;;14.78;64.80
75996;BME280;64681;49.738;9.004;2023-02-23T09:59:17;99216.97;;;14.64;65.55
75996;BME280;64681;49.738;9.004;2023-02-23T10:15:38;99222.13;;;14.26;67.13
75996;BME280;64681;49.738;9.004;2023-02-23T10:26:21;99225.25;;;13.66;67.93
75996;BME280;64681;49.738;9.004;2023-02-23T10:28:49;99230.41;;;13.55;68.91
75996;BME280;64681;49.738;9.004;2023-02-23T10:31:39;99233.16;;;13.98;68.09
75996;BME280;64681;49.738;9.004;2023-02-23T10:34:13;99225.56;;;14.03;67.86
75996;BME280;64681;49.738;9.004;2023-02-23T10:36:50;99227.09;;;13.81;68.32
75996;BME280;64681;49.738;9.004;2023-02-23T10:39:18;99227.91;;;13.85;68.09
75996;BME280;64681;49.738;9.004;2023-02-23T10:41:43;99238.50;;;13.98;68.55
75996;BME280;64681;49.738;9.004;2023-02-23T10:44:17;99227.03;;;14.20;68.31
75996;BME280;64681;49.738;9.004;2023-02-23T10:46:50;99218.66;;;14.49;67.05
75996;BME280;64681;49.738;9.004;2023-02-23T10:49:21;99227.00;;;14.90;66.42
75996;BME280;64681;49.738;9.004;2023-02-23T10:51:49;99218.13;;;15.16;65.67
75996;BME280;64681;49.738;9.004;2023-02-23T10:57:01;99226.91;;;15.40;63.42
75996;BME280;64681;49.738;9.004;2023-02-23T10:59:27;99214.19;;;15.71;62.63
75996;BME280;64681;49.738;9.004;2023-02-23T11:01:53;99223.41;;;15.70;62.76
75996;BME280;64681;49.738;9.004;2023-02-23T11:04:30;99219.44;;;15.60;63.28
75996;BME280;64681;49.738;9.004;2023-02-23T11:09:32;99204.69;;;15.47;63.31
75996;BME280;64681;49.738;9.004;2023-02-23T11:12:14;99215.22;;;15.93;61.35
75996;BME280;64681;49.738;9.004;2023-02-23T11:14:47;99222.84;;;16.29;60.04
75996;BME280;64681;49.738;9.004;2023-02-23T11:19:59;99209.66;;;16.17;60.42
75996;BME280;64681;49.738;9.004;2023-02-23T11:22:30;99216.63;;;16.21;59.61
75996;BME280;64681;49.738;9.004;2023-02-23T11:24:56;99215.66;;;16.44;59.99
75996;BME280;64681;49.738;9.004;2023-02-23T11:27:25;99212.03;;;16.74;59.00
75996;BME280;64681;49.738;9.004;2023-02-23T11:29:55;99224.72;;;16.70;58.70
75996;BME280;64681;49.738;9.004;2023-02-23T11:32:28;99218.38;;;16.44;59.09
75996;BME280;64681;49.738;9.004;2023-02-23T11:37:46;99215.66;;;16.44;59.53
75996;BME280;64681;49.738;9.004;2023-02-23T11:40:31;99216.53;;;16.59;59.69
75996;BME280;64681;49.738;9.004;2023-02-23T11:48:20;99201.09;;;16.49;58.39
75996;BME280;64681;49.738;9.004;2023-02-23T11:50:51;99205.28;;;16.98;57.34
75996;BME280;64681;49.738;9.004;2023-02-23T11:53:31;99196.97;;;16.69;57.10
75996;BME280;64681;49.738;9.004;2023-02-23T11:56:01;99195.78;;;16.14;58.96
75996;BME280;64681;49.738;9.004;2023-02-23T11:58:45;99197.59;;;16.00;58.79
75996;BME280;64681;49.738;9.004;2023-02-23T12:01:14;99188.47;;;15.77;60.58
75996;BME280;64681;49.738;9.004;2023-02-23T12:03:57;99185.97;;;15.58;60.10
75996;BME280;64681;49.738;9.004;2023-02-23T12:06:33;99192.50;;;15.57;61.23
75996;BME280;64681;49.738;9.004;2023-02-23T12:09:23;99190.56;;;15.91;59.67
75996;BME280;64681;49.738;9.004;2023-02-23T12:11:59;99189.91;;;15.67;59.93
75996;BME280;64681;49.738;9.004;2023-02-23T12:14:31;99192.31;;;16.14;58.91
75996;BME280;64681;49.738;9.004;2023-02-23T12:17:05;99193.38;;;15.68;60.53
75996;BME280;64681;49.738;9.004;2023-02-23T12:22:17;99188.03;;;15.72;60.20
75996;BME280;64681;49.738;9.004;2023-02-23T12:24:52;99194.34;;;15.18;60.14
75996;BME280;64681;49.738;9.004;2023-02-23T12:40:43;99167.75;;;15.44;59.62
75996;BME280;64681;49.738;9.004;2023-02-23T12:45:49;99171.97;;;16.20;56.00
75996;BME280;64681;49.738;9.004;2023-02-23T12:51:22;99164.44;;;15.58;58.41
75996;BME280;64681;49.738;9.004;2023-02-23T12:53:48;99154.25;;;15.40;58.45
75996;BME280;64681;49.738;9.004;2023-02-23T13:01:59;99156.81;;;16.01;56.14
75996;BME280;64681;49.738;9.004;2023-02-23T13:07:50;99158.25;;;16.36;57.29
75996;BME280;64681;49.738;9.004;2023-02-23T13:26:54;99156.34;;;15.54;57.05
75996;BME280;64681;49.738;9.004;2023-02-23T13:31:59;99151.69;;;15.17;56.96
75996;BME280;64681;49.738;9.004;2023-02-23T13:37:24;99148.22;;;15.50;56.62
75996;BME280;64681;49.738;9.004;2023-02-23T13:42:34;99140.19;;;15.92;55.78
75996;BME280;64681;49.738;9.004;2023-02-23T13:48:18;99144.75;;;15.84;57.37
75996;BME280;64681;49.738;9.004;2023-02-23T13:53:36;99151.03;;;15.61;57.29
75996;BME280;64681;49.738;9.004;2023-02-23T13:56:07;99137.44;;;15.88;57.32
75996;BME280;64681;49.738;9.004;2023-02-23T13:58:34;99145.69;;;16.06;55.72
75996;BME280;64681;49.738;9.004;2023-02-23T14:01:14;99147.22;;;16.04;55.72
75996;BME280;64681;49.738;9.004;2023-02-23T14:03:55;99152.56;;;15.62;56.46
75996;BME280;64681;49.738;9.004;2023-02-23T14:06:30;99155.66;;;16.02;55.69
75996;BME280;64681;49.738;9.004;2023-02-23T14:09:11;99150.47;;;16.24;55.90
75996;BME280;64681;49.738;9.004;2023-02-23T14:11:46;99145.88;;;16.28;55.74
75996;BME280;64681;49.738;9.004;2023-02-23T14:14:37;99145.53;;;16.33;55.66
75996;BME280;64681;49.738;9.004;2023-02-23T14:17:11;99154.31;;;16.26;54.26
75996;BME280;64681;49.738;9.004;2023-02-23T14:22:21;99144.75;;;16.36;55.59
75996;BME280;64681;49.738;9.004;2023-02-23T14:27:57;99148.28;;;16.44;55.14
75996;BME280;64681;49.738;9.004;2023-02-23T14:30:28;99149.06;;;16.44;56.00
75996;BME280;64681;49.738;9.004;2023-02-23T14:33:00;99152.09;;;16.36;55.27
75996;BME280;64681;49.738;9.004;2023-02-23T14:38:08;99141.00;;;15.96;55.33
75996;BME280;64681;49.738;9.004;2023-02-23T14:40:40;99140.69;;;15.67;56.22
75996;BME280;64681;49.738;9.004;2023-02-23T14:46:01;99140.69;;;15.29;57.87
75996;BME280;64681;49.738;9.004;2023-02-23T14:48:33;99136.94;;;15.38;57.31
75996;BME280;64681;49.738;9.004;2023-02-23T14:51:13;99135.09;;;15.11;57.90
75996;BME280;64681;49.738;9.004;2023-02-23T14:53:41;99123.56;;;14.80;59.07
75996;BME280;64681;49.738;9.004;2023-02-23T14:56:21;99137.19;;;14.95;59.25
75996;BME280;64681;49.738;9.004;2023-02-23T14:58:52;99137.03;;;14.84;59.83
75996;BME280;64681;49.738;9.004;2023-02-23T15:01:37;99131.53;;;14.73;60.05
75996;BME280;64681;49.738;9.004;2023-02-23T15:04:05;99136.81;;;14.96;59.94
75996;BME280;64681;49.738;9.004;2023-02-23T15:06:31;99129.66;;;15.08;59.69
75996;BME280;64681;49.738;9.004;2023-02-23T15:08:57;99131.72;;;15.22;58.37
75996;BME280;64681;49.738;9.004;2023-02-23T15:11:22;99138.91;;;14.80;60.29
75996;BME280;64681;49.738;9.004;2023-02-23T15:13:50;99136.34;;;14.64;60.28
75996;BME280;64681;49.738;9.004;2023-02-23T15:16:26;99144.19;;;14.72;60.21
75996;BME280;64681;49.738;9.004;2023-02-23T15:18:53;99148.75;;;14.68;59.69
75996;BME280;64681;49.738;9.004;2023-02-23T15:21:22;99139.69;;;14.80;60.86
75996;BME280;64681;49.738;9.004;2023-02-23T15:23:50;99147.38;;;14.82;60.88
75996;BME280;64681;49.738;9.004;2023-02-23T15:26:23;99145.44;;;14.79;59.42
75996;BME280;64681;49.738;9.004;2023-02-23T15:28:49;99143.50;;;14.79;59.30
75996;BME280;64681;49.738;9.004;2023-02-23T15:31:15;99141.69;;;14.60;60.15
75996;BME280;64681;49.738;9.004;2023-02-23T15:33:41;99150.19;;;14.39;61.09
75996;BME280;64681;49.738;9.004;2023-02-23T15:36:34;99136.31;;;14.60;60.41
75996;BME280;64681;49.738;9.004;2023-02-23T15:39:04;99148.56;;;14.34;60.73
75996;BME280;64681;49.738;9.004;2023-02-23T15:41:37;99141.97;;;14.28;61.70
75996;BME280;64681;49.738;9.004;2023-02-23T15:44:22;99146.56;;;14.28;61.33
75996;BME280;64681;49.738;9.004;2023-02-23T15:46:57;99143.06;;;14.50;59.96
75996;BME280;64681;49.738;9.004;2023-02-23T15:49:32;99145.44;;;14.05;61.23
75996;BME280;64681;49.738;9.004;2023-02-23T15:52:12;99154.13;;;13.75;62.37
75996;BME280;64681;49.738;9.004;2023-02-23T15:57:32;99156.25;;;13.86;62.00